Latest Weather Observations for Cummins Airport

IDS60801

Issued at 11:05 pm CST Wednesday 17 September 2014 (issued every 30 minutes, with the page automatically refreshed every 10 minutes)

About weather observations | Map of weather stations | Latest weather observations for SA | Other Formats
Station Details ID: 018217 Name: CUMMINS AERO Lat: -34.25 Lon: 135.71 Height: 60.11 m
Data from the previous 72 hours. | See also: Recent months at Cummins Airport
Date/Time
CST
Temp
°C
App
Temp
°C
Dew
Point
Rel
Hum
%
Delta-T
°C
Wind Press
QNH
hPa
Press
MSL
hPa
Rain
since 9 am
mm
Dir
 
Spd
km/h
Gust
km/h
Spd
kts
Gust
kts
17/11:00pm 2.6 -0.1 2.6 100 0.0 E 6 7 3 4 1026.3 1026.4 0.0
17/10:30pm 3.4 0.6 3.4 100 0.0 SE 7 7 4 4 1026.2 1026.3 0.0
17/10:00pm 4.6 3.4 4.5 99 0.0 CALM 0 0 0 0 1026.6 1026.7 0.0
17/09:30pm 4.8 1.8 4.2 96 0.3 S 9 11 5 6 1026.1 1026.2 0.0
17/09:00pm 5.5 2.6 4.8 95 0.3 S 9 11 5 6 1025.8 1025.9 0.0
17/08:30pm 6.4 3.5 4.9 90 0.7 S 9 11 5 6 1025.5 1025.5 0.0
17/08:00pm 7.9 5.2 5.7 86 1.0 SSE 9 11 5 6 1025.2 1025.2 0.0
17/07:30pm 9.7 6.7 6.1 78 1.7 S 11 13 6 7 1024.9 1024.9 0.0
17/07:00pm 11.5 8.2 6.4 71 2.4 SSE 13 17 7 9 1024.6 1024.6 0.0
17/06:30pm 11.9 8.6 6.4 69 2.6 S 13 15 7 8 1024.4 1024.4 0.0
17/06:00pm 13.0 10.3 7.2 68 2.8 SSE 11 15 6 8 1024.1 1024.1 0.0
17/05:30pm 13.4 9.4 6.7 64 3.2 SSE 17 22 9 12 1023.9 1023.9 0.0
17/05:00pm 14.0 10.0 6.8 62 3.5 SSE 17 20 9 11 1023.4 1023.4 0.0
17/04:30pm 14.6 11.3 7.9 64 3.3 SSE 15 19 8 10 1023.1 1023.1 0.0
17/04:00pm 14.9 12.3 7.7 62 3.6 S 11 17 6 9 1023.0 1023.0 0.0
17/03:30pm 15.1 11.9 8.3 64 3.4 SE 15 20 8 11 1022.8 1022.8 0.0
17/03:00pm 15.3 11.3 8.3 63 3.5 ESE 19 22 10 12 1022.8 1022.8 0.0
17/02:30pm 15.9 14.3 7.9 59 4.0 SSE 6 17 3 9 1022.8 1022.8 0.0
17/02:00pm 15.1 13.7 8.8 66 3.2 NNE 6 9 3 5 1022.9 1022.9 0.0
17/01:30pm 15.0 12.9 8.3 64 3.4 S 9 13 5 7 1023.0 1023.0 0.0
17/01:00pm 15.7 13.1 7.7 59 4.0 SSE 11 17 6 9 1023.0 1023.0 0.0
17/12:30pm 16.5 13.1 9.0 61 3.9 S 17 26 9 14 1023.0 1023.0 0.0
17/12:00pm 15.7 13.2 8.0 60 3.9 SSE 11 20 6 11 1023.3 1023.3 0.0
17/11:30am 15.1 10.5 8.1 63 3.5 S 22 28 12 15 1023.6 1023.6 0.0
17/11:00am 14.9 11.9 7.5 61 3.7 WSW 13 17 7 9 1023.6 1023.6 0.0
17/10:30am 13.5 10.3 9.9 79 1.8 SW 17 22 9 12 1023.6 1023.6 0.0
17/10:00am 14.8 12.1 9.0 68 3.0 S 13 20 7 11 1023.7 1023.7 0.0
17/09:30am 12.9 12.0 9.2 78 1.9 WSW 4 9 2 5 1023.7 1023.7 0.0
17/09:00am 11.7 11.9 10.4 92 0.7 W 0 0 0 0 1023.5 1023.5 -
17/08:30am 10.3 10.4 10.3 100 0.0 CALM 0 0 0 0 1023.3 1023.3 -
17/08:00am 7.7 7.2 7.7 100 0.0 CALM 0 0 0 0 1023.0 1023.0 -
17/07:30am 5.2 4.1 5.2 100 0.0 CALM 0 0 0 0 1022.6 1022.6 -
17/07:00am 3.1 0.3 3.1 100 0.0 NNE 7 9 4 5 1022.2 1022.2 -
17/06:30am 1.6 -0.1 1.6 100 0.0 CALM 0 0 0 0 1021.8 1021.8 -
17/06:00am 1.9 -0.2 1.9 100 0.0 N 2 7 1 4 1021.5 1021.5 -
17/05:30am 2.1 -1.3 2.1 100 0.0 N 9 9 5 5 1021.2 1021.2 -
17/05:00am 2.1 -0.9 2.1 100 0.0 ENE 7 9 4 5 1021.0 1021.0 -
17/04:30am 2.1 -0.9 2.1 100 0.0 NE 7 9 4 5 1020.8 1020.8 -
17/04:00am 2.5 -0.2 2.5 100 0.0 NE 6 7 3 4 1020.6 1020.6 -
17/03:30am 2.7 0.0 2.7 100 0.0 NNE 6 7 3 4 1020.6 1020.6 -
17/03:00am 3.1 0.5 3.1 100 0.0 E 6 7 3 4 1020.5 1020.5 0.0
17/02:30am 3.8 2.4 3.8 100 0.0 CALM 0 0 0 0 1020.7 1020.7 -
17/02:00am 4.4 3.2 4.4 100 0.0 CALM 0 0 0 0 1020.7 1020.7 -
17/01:30am 4.8 3.6 4.8 100 0.0 CALM 0 0 0 0 1020.8 1020.8 -
17/01:00am 6.1 5.2 6.1 100 0.0 CALM 0 0 0 0 1020.9 1020.9 -
17/12:30am 6.7 5.9 6.7 100 0.0 CALM 0 0 0 0 1021.2 1021.2 -
17/12:00am 7.4 5.1 7.4 100 0.0 WSW 9 11 5 6 1021.3 1021.3 -
 
Date/Time
CST
Temp
°C
App
Temp
°C
Dew
Point
Rel
Hum
%
Delta-T
°C
Wind Press
QNH
hPa
Press
MSL
hPa
Rain
since 9 am
mm
Dir
 
Spd
km/h
Gust
km/h
Spd
kts
Gust
kts
16/11:30pm 7.8 6.5 7.8 100 0.0 WSW 4 6 2 3 1021.4 1021.4 -
16/11:00pm 8.2 7.4 8.2 100 0.0 W 2 7 1 4 1021.4 1021.4 -
16/10:30pm 8.8 6.4 8.7 99 0.0 SSW 11 15 6 8 1021.5 1021.5 -
16/10:00pm 8.0 5.8 8.0 100 0.0 SW 9 11 5 6 1021.5 1021.5 -
16/09:30pm 8.8 6.4 8.8 100 0.0 WSW 11 13 6 7 1021.3 1021.3 -
16/09:00pm 8.8 5.9 8.2 96 0.3 W 13 15 7 8 1021.2 1021.2 0.2
16/08:30pm 9.9 7.4 9.6 98 0.1 W 13 15 7 8 1020.9 1020.9 -
16/08:00pm 9.4 7.3 8.3 93 0.5 W 9 11 5 6 1020.9 1020.9 -
16/07:30pm 11.5 9.5 8.7 83 1.4 WSW 9 15 5 8 1020.5 1020.5 -
16/07:00pm 11.9 10.0 9.1 83 1.4 SW 9 13 5 7 1020.0 1020.0 -
16/06:30pm 12.1 9.9 9.5 84 1.3 WSW 11 13 6 7 1019.9 1019.9 -
16/06:00pm 12.3 8.6 9.3 82 1.5 SW 19 26 10 14 1019.5 1019.5 -
16/05:30pm 12.8 8.9 9.4 80 1.7 SW 20 32 11 17 1019.0 1019.0 -
16/05:00pm 13.9 9.8 8.7 71 2.6 SW 20 28 11 15 1018.6 1018.6 -
16/04:30pm 14.4 11.1 9.4 72 2.6 SW 17 22 9 12 1018.4 1018.4 -
16/04:00pm 14.0 9.7 9.2 73 2.5 SW 22 30 12 16 1018.3 1018.3 -
16/03:30pm 14.3 10.7 10.5 78 2.0 SW 20 30 11 16 1018.0 1018.0 -
16/03:00pm 15.0 11.1 10.8 76 2.2 SSW 22 30 12 16 1017.9 1017.9 -
16/02:00pm 15.4 13.3 12.3 82 1.7 SW 15 20 8 11 1018.3 1018.3 0.4
16/01:30pm 14.3 12.6 13.5 95 0.4 WSW 15 20 8 11 1018.6 1018.6 0.4
16/01:00pm 13.1 9.5 12.9 99 0.1 W 24 32 13 17 1018.7 1018.7 0.4
16/12:30pm 16.3 11.5 9.0 62 3.8 W 24 30 13 16 1018.6 1018.6 0.0
16/12:00pm 15.3 12.3 10.5 73 2.5 W 17 28 9 15 1019.2 1019.2 0.0
16/11:30am 14.5 12.1 11.5 82 1.6 WNW 15 19 8 10 1019.6 1019.6 0.0
16/11:00am 12.7 8.2 12.7 100 0.0 W 28 37 15 20 1020.2 1020.2 0.0
16/10:44am 13.4 7.3 11.8 90 0.9 W 35 43 19 23 1019.9 1019.9 0.0
16/10:30am 15.2 11.9 9.6 69 2.9 W 17 22 9 12 1019.8 1019.8 0.0
16/10:00am 15.1 13.4 11.3 78 2.0 W 11 17 6 9 1019.9 1019.9 0.0
16/09:30am 14.3 12.3 11.5 83 1.5 WNW 13 19 7 10 1020.1 1020.1 0.0
16/09:00am 13.6 12.9 13.1 97 0.3 N 9 15 5 8 1019.9 1019.9 0.0
16/08:30am 12.1 11.4 12.1 100 0.0 NNE 7 11 4 6 1020.0 1020.0 0.0
16/08:00am 10.2 9.0 10.2 100 0.0 ENE 7 9 4 5 1020.0 1020.0 0.0
16/07:30am 7.6 5.7 7.6 100 0.0 NE 7 9 4 5 1019.9 1019.9 0.0
16/07:00am 4.6 1.7 4.6 100 0.0 N 9 9 5 5 1019.7 1019.7 0.0
16/06:30am 3.7 1.0 3.7 100 0.0 NNE 7 9 4 5 1019.7 1019.7 0.0
16/06:00am 4.5 2.5 4.5 100 0.0 NW 4 7 2 4 1019.4 1019.4 0.0
16/05:30am 4.8 2.5 4.8 100 0.0 N 6 7 3 4 1019.2 1019.2 0.0
16/05:00am 6.1 4.1 6.1 100 0.0 NNW 6 7 3 4 1019.2 1019.2 0.0
16/04:30am 5.8 4.5 5.8 100 0.0 N 2 6 1 3 1018.9 1018.9 0.0
16/04:00am 7.1 4.7 7.1 100 0.0 WNW 9 11 5 6 1018.9 1018.9 0.0
16/03:30am 6.5 4.4 6.5 100 0.0 N 7 7 4 4 1018.9 1018.9 0.0
16/03:00am 6.9 5.0 6.9 100 0.0 N 6 7 3 4 1018.8 1018.8 0.0
16/02:30am 6.2 4.0 6.2 100 0.0 N 7 9 4 5 1018.9 1018.9 0.0
16/02:00am 5.6 3.3 5.6 100 0.0 NNE 7 9 4 5 1019.0 1019.0 0.0
16/01:30am 5.1 2.7 5.1 100 0.0 NE 7 9 4 5 1019.2 1019.2 0.0
16/01:00am 5.6 2.9 5.6 100 0.0 NE 9 11 5 6 1019.4 1019.4 0.0
16/12:30am 5.7 3.0 5.7 100 0.0 NNE 9 11 5 6 1019.6 1019.6 0.0
16/12:00am 5.6 2.9 5.6 100 0.0 NNE 9 9 5 5 1019.8 1019.8 0.0
 
Date/Time
CST
Temp
°C
App
Temp
°C
Dew
Point
Rel
Hum
%
Delta-T
°C
Wind Press
QNH
hPa
Press
MSL
hPa
Rain
since 9 am
mm
Dir
 
Spd
km/h
Gust
km/h
Spd
kts
Gust
kts
15/11:30pm 5.9 3.8 5.9 100 0.0 NNE 6 9 3 5 1019.8 1019.8 0.0
15/11:00pm 6.5 5.7 6.5 100 0.0 CALM 0 0 0 0 1019.8 1019.8 0.0
15/10:30pm 8.1 7.7 8.1 100 0.0 CALM 0 0 0 0 1020.0 1020.0 0.0
15/10:00pm 9.0 7.1 9.0 100 0.0 W 9 11 5 6 1020.1 1020.1 0.0
15/09:30pm 9.5 8.1 9.5 100 0.0 SW 7 9 4 5 1020.1 1020.1 0.0
15/09:00pm 11.1 9.7 10.8 98 0.2 WSW 9 9 5 5 1020.0 1020.0 0.0
15/08:30pm 11.6 10.2 10.8 95 0.4 W 9 11 5 6 1020.1 1020.1 0.0
15/08:00pm 11.4 10.8 10.3 93 0.6 W 4 7 2 4 1019.7 1019.7 0.0
15/07:30pm 11.5 10.3 10.2 92 0.7 W 7 9 4 5 1019.5 1019.5 0.0
15/07:00pm 11.5 9.8 9.8 89 0.9 SW 9 13 5 7 1019.2 1019.2 0.0
15/06:30pm 13.0 10.2 10.0 82 1.5 SW 15 20 8 11 1018.9 1018.9 0.0
15/06:00pm 14.3 11.3 10.7 79 1.9 SW 17 20 9 11 1018.6 1018.6 0.0
15/05:30pm 15.1 11.7 10.5 74 2.4 WSW 19 24 10 13 1018.2 1018.2 0.0
15/05:00pm 15.6 11.6 10.4 71 2.7 SSW 22 30 12 16 1018.0 1018.0 0.0
15/04:30pm 15.3 11.6 10.1 71 2.7 SW 20 28 11 15 1017.8 1017.8 0.0
15/04:00pm 17.4 13.4 10.5 64 3.7 SW 22 33 12 18 1017.3 1017.3 0.0
15/03:30pm 16.7 12.5 9.9 64 3.6 SW 22 32 12 17 1017.5 1017.5 0.0
15/03:00pm 14.7 9.4 11.1 79 1.9 SW 30 39 16 21 1017.7 1017.7 0.0
15/02:30pm 15.2 10.4 11.6 79 1.9 SSW 28 35 15 19 1017.4 1017.4 0.0
15/02:00pm 17.5 12.4 10.6 64 3.7 SSW 28 35 15 19 1017.2 1017.2 0.0
15/01:30pm 17.1 11.5 10.2 64 3.7 SW 30 41 16 22 1017.3 1017.3 0.0
15/01:00pm 17.5 12.0 9.2 58 4.3 SW 28 43 15 23 1017.4 1017.4 0.0
15/12:30pm 16.7 10.5 9.4 62 3.8 SW 32 41 17 22 1017.5 1017.5 0.0
15/12:00pm 18.0 12.4 10.1 60 4.2 SW 30 39 16 21 1017.5 1017.5 0.0
15/11:30am 17.8 12.2 10.2 61 4.0 SW 30 41 16 22 1017.5 1017.5 0.0
15/11:00am 16.3 10.5 10.8 70 2.9 SW 32 43 17 23 1017.8 1017.8 0.0
15/10:30am 17.4 12.7 12.1 71 2.9 SW 28 41 15 22 1017.6 1017.6 0.0
15/10:00am 16.2 11.0 11.6 74 2.5 SW 30 43 16 23 1017.5 1017.5 0.0
15/09:30am 15.7 11.8 12.1 79 2.0 SW 24 35 13 19 1017.3 1017.3 0.0
15/09:00am 15.1 10.6 11.5 79 1.9 SW 26 35 14 19 1017.0 1017.0 0.0
15/08:30am 14.6 10.6 11.9 84 1.5 SW 24 35 13 19 1016.8 1016.8 0.0
15/08:00am 14.4 10.7 11.4 82 1.6 SW 22 32 12 17 1016.3 1016.3 0.0
15/07:30am 14.1 10.0 11.3 83 1.5 SW 24 32 13 17 1016.0 1016.0 0.0
15/07:00am 13.9 10.1 11.2 84 1.4 SW 22 30 12 16 1015.6 1015.6 0.0
15/06:30am 13.9 9.6 10.9 82 1.6 SW 24 33 13 18 1015.0 1015.0 0.0
15/06:00am 13.9 9.5 11.6 86 1.2 SW 26 35 14 19 1014.5 1014.5 0.0
15/05:30am 13.9 9.6 12.1 89 1.0 SW 26 37 14 20 1014.0 1014.0 0.0
15/05:00am 13.8 8.9 12.4 91 0.8 SW 30 37 16 20 1013.4 1013.4 0.0
15/04:30am 14.1 9.5 12.3 89 1.0 SW 28 39 15 21 1013.3 1013.3 0.0
15/04:00am 14.2 10.6 12.9 92 0.7 SW 24 33 13 18 1012.8 1012.8 0.0
15/03:30am 14.2 10.9 12.8 91 0.8 SW 22 30 12 16 1012.4 1012.4 0.0
15/03:00am 14.3 9.7 13.5 95 0.4 SW 30 41 16 22 1012.2 1012.2 0.0
15/02:48am 14.1 10.1 14.1 100 0.0 SW 28 37 15 20 1012.0 1012.0 0.0
15/02:30am 13.8 12.2 13.8 100 0.0 SW 15 17 8 9 1011.6 1011.5 0.0
15/02:00am 13.8 12.5 13.8 100 0.0 WSW 13 15 7 8 1011.4 1011.3 0.0
15/01:30am 14.4 13.7 14.4 100 0.0 W 11 15 6 8 1011.3 1011.2 0.0
15/01:00am 14.5 14.5 14.3 99 0.1 W 7 9 4 5 1011.2 1011.1 0.0
15/12:30am 14.6 13.8 14.0 96 0.3 WNW 11 15 6 8 1011.3 1011.2 0.0
15/12:00am 14.7 12.6 13.6 93 0.6 NW 17 22 9 12 1011.2 1011.1 0.0
 
Date/Time
CST
Temp
°C
App
Temp
°C
Dew
Point
Rel
Hum
%
Delta-T
°C
Wind Press
QNH
hPa
Press
MSL
hPa
Rain
since 9 am
mm
Dir
 
Spd
km/h
Gust
km/h
Spd
kts
Gust
kts
14/11:30pm 14.8 12.6 13.3 91 0.8 NW 17 26 9 14 1011.5 1011.4 0.0

Other Formats:

Comma delimited format used in spreadsheet applications
http://www.bom.gov.au/fwo/IDS60801/IDS60801.95663.axf

JavaScript Object Notation format (JSON) in row-major order
http://www.bom.gov.au/fwo/IDS60801/IDS60801.95663.json